KROX/ROX METAR and TAF weather

Enter ICAO airport designator
Station Type Date Time Source
KROX METAR 2019/02/23 01:07 UTC NOAA

KROX 230107Z AUTO 19003KT 10SM SCT060 M11/M14 A3026 RMK AO2


Station Type Date Time Source
KROX Decoded METAR 2019/02/23 01:07 UTC NOAA

Roseau, Roseau Municipal Airport/Rudy Billberg Field, MN, United States (KROX) 48-51N 095-42W
Feb 22, 2019 - 08:07 PM EST / 2019.02.23 0107 UTC
Wind: from the S (190 degrees) at 3 MPH (3 KT):0
Visibility: 10 mile(s):0
Sky conditions: partly cloudy
Temperature: 12 F (-11 C)
Dew Point: 6 F (-14 C)
Relative Humidity: 78%
Pressure (altimeter): 30.26 in. Hg (1024 hPa)
ob: KROX 230107Z AUTO 19003KT 10SM SCT060 M11/M14 A3026 RMK AO2
cycle: 1

Station Type Date Time Source
KROX TAF UTC NOAA

Error!


Example: see airport list